sensor_id;sensor_type;location;lat;lon;timestamp;P1;durP1;ratioP1;P2;durP2;ratioP2
15645;SDS011;7922;43.622;1.476;2022-07-15T00:00:30;7.73;;;6.87;;
15645;SDS011;7922;43.622;1.476;2022-07-15T00:02:57;8.57;;;6.73;;
15645;SDS011;7922;43.622;1.476;2022-07-15T00:05:23;7.23;;;6.60;;
15645;SDS011;7922;43.622;1.476;2022-07-15T00:07:49;9.17;;;7.13;;
15645;SDS011;7922;43.622;1.476;2022-07-15T00:10:15;8.27;;;7.23;;
15645;SDS011;7922;43.622;1.476;2022-07-15T00:15:22;7.97;;;7.17;;
15645;SDS011;7922;43.622;1.476;2022-07-15T00:17:53;7.63;;;6.93;;
15645;SDS011;7922;43.622;1.476;2022-07-15T00:20:19;7.57;;;6.80;;
15645;SDS011;7922;43.622;1.476;2022-07-15T00:22:46;9.83;;;7.27;;
15645;SDS011;7922;43.622;1.476;2022-07-15T00:25:14;8.90;;;6.80;;
15645;SDS011;7922;43.622;1.476;2022-07-15T00:27:57;6.33;;;5.73;;
15645;SDS011;7922;43.622;1.476;2022-07-15T00:30:38;6.87;;;6.20;;
15645;SDS011;7922;43.622;1.476;2022-07-15T00:33:06;7.70;;;6.40;;
15645;SDS011;7922;43.622;1.476;2022-07-15T00:35:33;6.63;;;5.80;;
15645;SDS011;7922;43.622;1.476;2022-07-15T00:38:00;7.27;;;5.93;;
15645;SDS011;7922;43.622;1.476;2022-07-15T00:40:27;6.30;;;5.70;;
15645;SDS011;7922;43.622;1.476;2022-07-15T00:42:53;10.53;;;6.53;;
15645;SDS011;7922;43.622;1.476;2022-07-15T00:45:21;10.60;;;7.87;;
15645;SDS011;7922;43.622;1.476;2022-07-15T00:47:49;10.07;;;8.33;;
15645;SDS011;7922;43.622;1.476;2022-07-15T00:50:21;9.27;;;8.40;;
15645;SDS011;7922;43.622;1.476;2022-07-15T00:52:53;8.67;;;7.50;;
15645;SDS011;7922;43.622;1.476;2022-07-15T00:55:24;8.43;;;7.63;;
15645;SDS011;7922;43.622;1.476;2022-07-15T00:57:54;9.97;;;8.53;;
15645;SDS011;7922;43.622;1.476;2022-07-15T01:00:22;8.63;;;7.93;;
15645;SDS011;7922;43.622;1.476;2022-07-15T01:02:48;9.97;;;8.97;;
15645;SDS011;7922;43.622;1.476;2022-07-15T01:05:20;8.83;;;7.80;;
15645;SDS011;7922;43.622;1.476;2022-07-15T01:07:46;10.00;;;7.70;;
15645;SDS011;7922;43.622;1.476;2022-07-15T01:10:15;9.30;;;7.93;;
15645;SDS011;7922;43.622;1.476;2022-07-15T01:12:41;9.83;;;8.37;;
15645;SDS011;7922;43.622;1.476;2022-07-15T01:15:11;8.20;;;7.40;;
15645;SDS011;7922;43.622;1.476;2022-07-15T01:17:37;8.50;;;7.37;;
15645;SDS011;7922;43.622;1.476;2022-07-15T01:20:04;9.17;;;7.57;;
15645;SDS011;7922;43.622;1.476;2022-07-15T01:22:30;7.80;;;7.00;;
15645;SDS011;7922;43.622;1.476;2022-07-15T01:24:55;7.87;;;7.00;;
15645;SDS011;7922;43.622;1.476;2022-07-15T01:27:21;8.57;;;7.70;;
15645;SDS011;7922;43.622;1.476;2022-07-15T01:29:47;9.37;;;7.50;;
15645;SDS011;7922;43.622;1.476;2022-07-15T01:32:13;8.33;;;7.43;;
15645;SDS011;7922;43.622;1.476;2022-07-15T01:34:38;7.70;;;7.00;;
15645;SDS011;7922;43.622;1.476;2022-07-15T01:37:04;11.83;;;7.60;;
15645;SDS011;7922;43.622;1.476;2022-07-15T01:39:29;8.63;;;7.17;;
15645;SDS011;7922;43.622;1.476;2022-07-15T01:41:55;8.47;;;7.07;;
15645;SDS011;7922;43.622;1.476;2022-07-15T01:44:21;7.70;;;6.93;;
15645;SDS011;7922;43.622;1.476;2022-07-15T01:46:47;7.53;;;6.90;;
15645;SDS011;7922;43.622;1.476;2022-07-15T01:49:12;8.17;;;7.30;;
15645;SDS011;7922;43.622;1.476;2022-07-15T01:51:48;11.37;;;7.10;;
15645;SDS011;7922;43.622;1.476;2022-07-15T01:54:14;9.97;;;6.70;;
15645;SDS011;7922;43.622;1.476;2022-07-15T01:56:40;10.13;;;7.50;;
15645;SDS011;7922;43.622;1.476;2022-07-15T01:59:06;7.47;;;6.60;;
15645;SDS011;7922;43.622;1.476;2022-07-15T02:01:32;7.97;;;6.23;;
15645;SDS011;7922;43.622;1.476;2022-07-15T02:03:57;6.97;;;6.37;;
15645;SDS011;7922;43.622;1.476;2022-07-15T02:06:23;6.90;;;6.30;;
15645;SDS011;7922;43.622;1.476;2022-07-15T02:08:49;6.67;;;6.07;;
15645;SDS011;7922;43.622;1.476;2022-07-15T02:11:14;8.60;;;6.00;;
15645;SDS011;7922;43.622;1.476;2022-07-15T02:13:40;7.10;;;6.60;;
15645;SDS011;7922;43.622;1.476;2022-07-15T02:16:06;9.63;;;6.13;;
15645;SDS011;7922;43.622;1.476;2022-07-15T02:18:31;6.80;;;6.20;;
15645;SDS011;7922;43.622;1.476;2022-07-15T02:20:57;6.60;;;6.00;;
15645;SDS011;7922;43.622;1.476;2022-07-15T02:23:23;6.40;;;5.80;;
15645;SDS011;7922;43.622;1.476;2022-07-15T02:25:49;6.57;;;5.47;;
15645;SDS011;7922;43.622;1.476;2022-07-15T02:28:15;6.13;;;5.53;;
15645;SDS011;7922;43.622;1.476;2022-07-15T02:30:41;8.77;;;6.40;;
15645;SDS011;7922;43.622;1.476;2022-07-15T02:33:07;7.23;;;6.20;;
15645;SDS011;7922;43.622;1.476;2022-07-15T02:35:34;7.40;;;6.13;;
15645;SDS011;7922;43.622;1.476;2022-07-15T02:38:01;8.43;;;6.30;;
15645;SDS011;7922;43.622;1.476;2022-07-15T02:40:27;6.57;;;5.80;;
15645;SDS011;7922;43.622;1.476;2022-07-15T02:42:54;7.33;;;6.60;;
15645;SDS011;7922;43.622;1.476;2022-07-15T02:45:24;9.87;;;8.87;;
15645;SDS011;7922;43.622;1.476;2022-07-15T02:47:51;9.83;;;8.67;;
15645;SDS011;7922;43.622;1.476;2022-07-15T02:50:17;8.17;;;6.90;;
15645;SDS011;7922;43.622;1.476;2022-07-15T02:52:43;7.63;;;6.77;;
15645;SDS011;7922;43.622;1.476;2022-07-15T02:55:10;9.03;;;7.90;;
15645;SDS011;7922;43.622;1.476;2022-07-15T02:57:37;8.00;;;7.30;;
15645;SDS011;7922;43.622;1.476;2022-07-15T03:00:04;10.50;;;8.40;;
15645;SDS011;7922;43.622;1.476;2022-07-15T03:02:31;9.63;;;8.73;;
15645;SDS011;7922;43.622;1.476;2022-07-15T03:04:57;10.43;;;9.43;;
15645;SDS011;7922;43.622;1.476;2022-07-15T03:07:23;11.57;;;10.43;;
15645;SDS011;7922;43.622;1.476;2022-07-15T03:09:48;12.63;;;11.43;;
15645;SDS011;7922;43.622;1.476;2022-07-15T03:12:14;13.30;;;12.00;;
15645;SDS011;7922;43.622;1.476;2022-07-15T03:14:40;14.63;;;13.13;;
15645;SDS011;7922;43.622;1.476;2022-07-15T03:17:06;14.47;;;13.07;;
15645;SDS011;7922;43.622;1.476;2022-07-15T03:19:33;13.87;;;12.57;;
15645;SDS011;7922;43.622;1.476;2022-07-15T03:21:59;13.53;;;12.23;;
15645;SDS011;7922;43.622;1.476;2022-07-15T03:24:25;13.20;;;11.90;;
15645;SDS011;7922;43.622;1.476;2022-07-15T03:26:51;13.33;;;12.13;;
15645;SDS011;7922;43.622;1.476;2022-07-15T03:29:16;14.20;;;12.70;;
15645;SDS011;7922;43.622;1.476;2022-07-15T03:31:43;13.07;;;11.90;;
15645;SDS011;7922;43.622;1.476;2022-07-15T03:34:09;12.87;;;11.80;;
15645;SDS011;7922;43.622;1.476;2022-07-15T03:36:35;15.07;;;13.77;;
15645;SDS011;7922;43.622;1.476;2022-07-15T03:39:02;13.93;;;12.47;;
15645;SDS011;7922;43.622;1.476;2022-07-15T03:41:29;13.97;;;12.57;;
15645;SDS011;7922;43.622;1.476;2022-07-15T03:43:55;13.97;;;12.57;;
15645;SDS011;7922;43.622;1.476;2022-07-15T03:46:21;18.10;;;14.80;;
15645;SDS011;7922;43.622;1.476;2022-07-15T03:48:46;18.13;;;16.43;;
15645;SDS011;7922;43.622;1.476;2022-07-15T03:51:12;18.87;;;16.93;;
15645;SDS011;7922;43.622;1.476;2022-07-15T03:53:38;19.90;;;17.90;;
15645;SDS011;7922;43.622;1.476;2022-07-15T03:56:04;20.87;;;18.97;;
15645;SDS011;7922;43.622;1.476;2022-07-15T03:58:30;20.67;;;18.80;;
15645;SDS011;7922;43.622;1.476;2022-07-15T04:00:55;20.87;;;19.03;;
15645;SDS011;7922;43.622;1.476;2022-07-15T04:03:22;19.83;;;17.87;;
15645;SDS011;7922;43.622;1.476;2022-07-15T04:05:47;22.07;;;20.07;;
15645;SDS011;7922;43.622;1.476;2022-07-15T04:08:13;22.13;;;19.87;;
15645;SDS011;7922;43.622;1.476;2022-07-15T04:10:39;24.93;;;22.33;;
15645;SDS011;7922;43.622;1.476;2022-07-15T04:13:05;23.50;;;21.20;;
15645;SDS011;7922;43.622;1.476;2022-07-15T04:15:30;23.47;;;20.97;;
15645;SDS011;7922;43.622;1.476;2022-07-15T04:17:56;24.47;;;19.83;;
15645;SDS011;7922;43.622;1.476;2022-07-15T04:20:23;23.03;;;20.63;;
15645;SDS011;7922;43.622;1.476;2022-07-15T04:22:51;22.60;;;20.40;;
15645;SDS011;7922;43.622;1.476;2022-07-15T04:25:18;22.53;;;20.33;;
15645;SDS011;7922;43.622;1.476;2022-07-15T04:27:44;22.13;;;20.10;;
15645;SDS011;7922;43.622;1.476;2022-07-15T04:30:11;22.37;;;20.20;;
15645;SDS011;7922;43.622;1.476;2022-07-15T04:32:38;22.93;;;20.60;;
15645;SDS011;7922;43.622;1.476;2022-07-15T04:35:05;21.47;;;19.47;;
15645;SDS011;7922;43.622;1.476;2022-07-15T04:37:31;23.73;;;19.37;;
15645;SDS011;7922;43.622;1.476;2022-07-15T04:39:56;21.07;;;19.07;;
15645;SDS011;7922;43.622;1.476;2022-07-15T04:42:22;23.73;;;21.43;;
15645;SDS011;7922;43.622;1.476;2022-07-15T04:44:48;20.57;;;18.67;;
15645;SDS011;7922;43.622;1.476;2022-07-15T04:47:14;19.73;;;17.87;;
15645;SDS011;7922;43.622;1.476;2022-07-15T04:49:40;20.90;;;18.80;;
15645;SDS011;7922;43.622;1.476;2022-07-15T04:52:24;20.30;;;18.23;;
15645;SDS011;7922;43.622;1.476;2022-07-15T04:54:50;18.87;;;17.13;;
15645;SDS011;7922;43.622;1.476;2022-07-15T04:57:17;19.23;;;17.40;;
15645;SDS011;7922;43.622;1.476;2022-07-15T04:59:43;19.63;;;17.40;;
15645;SDS011;7922;43.622;1.476;2022-07-15T05:02:08;19.60;;;17.73;;
15645;SDS011;7922;43.622;1.476;2022-07-15T05:04:34;18.90;;;17.20;;
15645;SDS011;7922;43.622;1.476;2022-07-15T05:07:00;20.80;;;18.60;;
15645;SDS011;7922;43.622;1.476;2022-07-15T05:09:26;19.30;;;17.63;;
15645;SDS011;7922;43.622;1.476;2022-07-15T05:11:52;19.67;;;17.57;;
15645;SDS011;7922;43.622;1.476;2022-07-15T05:14:18;20.17;;;18.17;;
15645;SDS011;7922;43.622;1.476;2022-07-15T05:16:43;20.63;;;18.67;;
15645;SDS011;7922;43.622;1.476;2022-07-15T05:19:09;19.77;;;18.13;;
15645;SDS011;7922;43.622;1.476;2022-07-15T05:21:35;20.23;;;18.23;;
15645;SDS011;7922;43.622;1.476;2022-07-15T05:24:00;19.83;;;17.93;;
15645;SDS011;7922;43.622;1.476;2022-07-15T05:26:26;20.40;;;18.60;;
15645;SDS011;7922;43.622;1.476;2022-07-15T05:28:52;19.60;;;18.00;;
15645;SDS011;7922;43.622;1.476;2022-07-15T05:31:17;20.90;;;18.97;;
15645;SDS011;7922;43.622;1.476;2022-07-15T05:33:43;21.03;;;18.87;;
15645;SDS011;7922;43.622;1.476;2022-07-15T05:36:12;20.80;;;18.93;;
15645;SDS011;7922;43.622;1.476;2022-07-15T05:38:39;20.60;;;18.50;;
15645;SDS011;7922;43.622;1.476;2022-07-15T05:41:05;21.23;;;19.23;;
15645;SDS011;7922;43.622;1.476;2022-07-15T05:43:31;20.83;;;18.83;;
15645;SDS011;7922;43.622;1.476;2022-07-15T05:45:57;20.63;;;18.67;;
15645;SDS011;7922;43.622;1.476;2022-07-15T05:48:22;21.70;;;19.60;;
15645;SDS011;7922;43.622;1.476;2022-07-15T05:50:48;21.63;;;19.63;;
15645;SDS011;7922;43.622;1.476;2022-07-15T05:53:14;22.00;;;20.00;;
15645;SDS011;7922;43.622;1.476;2022-07-15T05:55:40;20.67;;;18.67;;
15645;SDS011;7922;43.622;1.476;2022-07-15T05:58:07;22.87;;;20.63;;
15645;SDS011;7922;43.622;1.476;2022-07-15T06:00:33;21.77;;;19.77;;
15645;SDS011;7922;43.622;1.476;2022-07-15T06:02:59;21.67;;;19.73;;
15645;SDS011;7922;43.622;1.476;2022-07-15T06:05:26;22.80;;;20.63;;
15645;SDS011;7922;43.622;1.476;2022-07-15T06:07:52;22.20;;;20.27;;
15645;SDS011;7922;43.622;1.476;2022-07-15T06:10:19;22.67;;;20.67;;
15645;SDS011;7922;43.622;1.476;2022-07-15T06:12:45;23.20;;;21.17;;
15645;SDS011;7922;43.622;1.476;2022-07-15T06:15:11;22.43;;;20.33;;
15645;SDS011;7922;43.622;1.476;2022-07-15T06:17:37;23.60;;;20.10;;
15645;SDS011;7922;43.622;1.476;2022-07-15T06:20:03;22.70;;;20.50;;
15645;SDS011;7922;43.622;1.476;2022-07-15T06:22:30;22.73;;;20.70;;
15645;SDS011;7922;43.622;1.476;2022-07-15T06:24:55;23.00;;;20.80;;
15645;SDS011;7922;43.622;1.476;2022-07-15T06:27:21;21.93;;;19.73;;
15645;SDS011;7922;43.622;1.476;2022-07-15T06:29:48;23.20;;;21.13;;
15645;SDS011;7922;43.622;1.476;2022-07-15T06:32:14;21.70;;;19.80;;
15645;SDS011;7922;43.622;1.476;2022-07-15T06:34:40;22.43;;;19.97;;
15645;SDS011;7922;43.622;1.476;2022-07-15T06:37:07;21.37;;;19.30;;
15645;SDS011;7922;43.622;1.476;2022-07-15T06:39:33;22.47;;;20.37;;
15645;SDS011;7922;43.622;1.476;2022-07-15T06:41:59;21.63;;;19.77;;
15645;SDS011;7922;43.622;1.476;2022-07-15T06:44:25;22.40;;;20.00;;
15645;SDS011;7922;43.622;1.476;2022-07-15T06:46:51;21.60;;;19.50;;
15645;SDS011;7922;43.622;1.476;2022-07-15T06:49:17;20.97;;;18.97;;
15645;SDS011;7922;43.622;1.476;2022-07-15T06:51:43;20.27;;;18.57;;
15645;SDS011;7922;43.622;1.476;2022-07-15T06:54:09;19.87;;;17.97;;
15645;SDS011;7922;43.622;1.476;2022-07-15T06:56:34;19.73;;;17.83;;
15645;SDS011;7922;43.622;1.476;2022-07-15T06:59:00;19.40;;;17.47;;
15645;SDS011;7922;43.622;1.476;2022-07-15T07:01:26;20.23;;;18.27;;
15645;SDS011;7922;43.622;1.476;2022-07-15T07:03:52;20.20;;;18.37;;
15645;SDS011;7922;43.622;1.476;2022-07-15T07:06:17;20.20;;;18.50;;
15645;SDS011;7922;43.622;1.476;2022-07-15T07:08:43;20.73;;;18.77;;
15645;SDS011;7922;43.622;1.476;2022-07-15T07:11:11;19.93;;;18.13;;
15645;SDS011;7922;43.622;1.476;2022-07-15T07:13:37;18.57;;;16.87;;
15645;SDS011;7922;43.622;1.476;2022-07-15T07:16:03;19.67;;;17.57;;
15645;SDS011;7922;43.622;1.476;2022-07-15T07:18:30;20.07;;;18.37;;
15645;SDS011;7922;43.622;1.476;2022-07-15T07:20:56;18.97;;;17.20;;
15645;SDS011;7922;43.622;1.476;2022-07-15T07:23:22;20.00;;;18.20;;
15645;SDS011;7922;43.622;1.476;2022-07-15T07:25:51;18.50;;;16.80;;
15645;SDS011;7922;43.622;1.476;2022-07-15T07:28:18;20.10;;;18.23;;
15645;SDS011;7922;43.622;1.476;2022-07-15T07:30:44;20.53;;;18.53;;
15645;SDS011;7922;43.622;1.476;2022-07-15T07:33:11;20.10;;;18.23;;
15645;SDS011;7922;43.622;1.476;2022-07-15T07:35:37;19.90;;;18.10;;
15645;SDS011;7922;43.622;1.476;2022-07-15T07:38:03;20.47;;;18.60;;
15645;SDS011;7922;43.622;1.476;2022-07-15T07:40:29;21.07;;;19.07;;
15645;SDS011;7922;43.622;1.476;2022-07-15T07:42:55;20.77;;;18.63;;
15645;SDS011;7922;43.622;1.476;2022-07-15T07:45:21;20.83;;;18.93;;
15645;SDS011;7922;43.622;1.476;2022-07-15T07:47:48;21.40;;;19.45;;
15645;SDS011;7922;43.622;1.476;2022-07-15T07:50:13;21.37;;;19.37;;
15645;SDS011;7922;43.622;1.476;2022-07-15T07:52:39;21.43;;;19.10;;
15645;SDS011;7922;43.622;1.476;2022-07-15T07:55:05;21.80;;;19.50;;
15645;SDS011;7922;43.622;1.476;2022-07-15T07:57:31;20.60;;;18.87;;
15645;SDS011;7922;43.622;1.476;2022-07-15T07:59:57;20.70;;;18.73;;
15645;SDS011;7922;43.622;1.476;2022-07-15T08:02:23;19.43;;;17.73;;
15645;SDS011;7922;43.622;1.476;2022-07-15T08:04:49;20.33;;;18.53;;
15645;SDS011;7922;43.622;1.476;2022-07-15T08:07:15;20.10;;;18.07;;
15645;SDS011;7922;43.622;1.476;2022-07-15T08:09:42;20.03;;;18.33;;
15645;SDS011;7922;43.622;1.476;2022-07-15T08:12:08;19.83;;;18.03;;
15645;SDS011;7922;43.622;1.476;2022-07-15T08:14:34;20.63;;;18.73;;
15645;SDS011;7922;43.622;1.476;2022-07-15T08:16:59;20.17;;;18.40;;
15645;SDS011;7922;43.622;1.476;2022-07-15T08:19:25;19.63;;;17.93;;
15645;SDS011;7922;43.622;1.476;2022-07-15T08:21:51;19.83;;;18.03;;
15645;SDS011;7922;43.622;1.476;2022-07-15T08:24:17;19.02;;;17.23;;
15645;SDS011;7922;43.622;1.476;2022-07-15T08:26:43;18.53;;;16.93;;
15645;SDS011;7922;43.622;1.476;2022-07-15T08:29:08;18.73;;;16.92;;
15645;SDS011;7922;43.622;1.476;2022-07-15T08:31:35;18.60;;;16.90;;
15645;SDS011;7922;43.622;1.476;2022-07-15T08:34:01;17.90;;;16.38;;
15645;SDS011;7922;43.622;1.476;2022-07-15T08:36:28;18.50;;;16.85;;
15645;SDS011;7922;43.622;1.476;2022-07-15T08:38:55;18.60;;;17.02;;
15645;SDS011;7922;43.622;1.476;2022-07-15T08:41:20;17.90;;;16.40;;
15645;SDS011;7922;43.622;1.476;2022-07-15T08:43:46;18.88;;;17.00;;
15645;SDS011;7922;43.622;1.476;2022-07-15T08:46:13;17.52;;;15.82;;
15645;SDS011;7922;43.622;1.476;2022-07-15T08:48:40;16.67;;;15.00;;
15645;SDS011;7922;43.622;1.476;2022-07-15T08:51:11;17.27;;;15.65;;
15645;SDS011;7922;43.622;1.476;2022-07-15T08:53:38;16.88;;;15.27;;
15645;SDS011;7922;43.622;1.476;2022-07-15T08:56:04;17.02;;;15.35;;
15645;SDS011;7922;43.622;1.476;2022-07-15T08:58:30;17.13;;;15.55;;
15645;SDS011;7922;43.622;1.476;2022-07-15T09:00:59;17.40;;;15.75;;
15645;SDS011;7922;43.622;1.476;2022-07-15T09:03:25;16.00;;;14.60;;
15645;SDS011;7922;43.622;1.476;2022-07-15T09:05:51;16.80;;;15.23;;
15645;SDS011;7922;43.622;1.476;2022-07-15T09:08:17;18.92;;;15.15;;
15645;SDS011;7922;43.622;1.476;2022-07-15T09:15:52;14.65;;;13.45;;
15645;SDS011;7922;43.622;1.476;2022-07-15T09:18:20;14.27;;;13.07;;
15645;SDS011;7922;43.622;1.476;2022-07-15T09:20:58;14.48;;;13.27;;
15645;SDS011;7922;43.622;1.476;2022-07-15T09:23:26;15.35;;;13.75;;
15645;SDS011;7922;43.622;1.476;2022-07-15T09:25:57;15.77;;;14.35;;
15645;SDS011;7922;43.622;1.476;2022-07-15T09:28:38;15.68;;;14.18;;
15645;SDS011;7922;43.622;1.476;2022-07-15T09:31:05;15.15;;;13.70;;
15645;SDS011;7922;43.622;1.476;2022-07-15T09:33:50;14.98;;;13.68;;
15645;SDS011;7922;43.622;1.476;2022-07-15T09:36:24;14.40;;;13.15;;
15645;SDS011;7922;43.622;1.476;2022-07-15T09:38:56;14.27;;;12.98;;
15645;SDS011;7922;43.622;1.476;2022-07-15T09:43:58;14.55;;;13.20;;
15645;SDS011;7922;43.622;1.476;2022-07-15T09:46:28;15.75;;;14.15;;
15645;SDS011;7922;43.622;1.476;2022-07-15T09:49:03;16.65;;;14.95;;
15645;SDS011;7922;43.622;1.476;2022-07-15T09:51:29;15.98;;;14.68;;
15645;SDS011;7922;43.622;1.476;2022-07-15T09:53:55;14.57;;;13.20;;
15645;SDS011;7922;43.622;1.476;2022-07-15T09:56:21;16.88;;;14.43;;
15645;SDS011;7922;43.622;1.476;2022-07-15T09:58:48;14.45;;;13.02;;
15645;SDS011;7922;43.622;1.476;2022-07-15T10:01:15;14.88;;;13.48;;
15645;SDS011;7922;43.622;1.476;2022-07-15T10:03:41;14.27;;;12.85;;
15645;SDS011;7922;43.622;1.476;2022-07-15T10:06:07;14.27;;;12.85;;
15645;SDS011;7922;43.622;1.476;2022-07-15T10:08:37;13.30;;;12.10;;
15645;SDS011;7922;43.622;1.476;2022-07-15T10:11:05;14.70;;;13.05;;
15645;SDS011;7922;43.622;1.476;2022-07-15T10:21:50;17.02;;;13.05;;
15645;SDS011;7922;43.622;1.476;2022-07-15T10:29:48;13.13;;;11.52;;
15645;SDS011;7922;43.622;1.476;2022-07-15T10:32:14;12.05;;;11.05;;
15645;SDS011;7922;43.622;1.476;2022-07-15T10:34:39;11.73;;;10.75;;
15645;SDS011;7922;43.622;1.476;2022-07-15T10:37:08;19.00;;;11.27;;
15645;SDS011;7922;43.622;1.476;2022-07-15T10:42:16;11.52;;;10.52;;
15645;SDS011;7922;43.622;1.476;2022-07-15T10:44:51;10.52;;;9.43;;
15645;SDS011;7922;43.622;1.476;2022-07-15T10:47:29;10.32;;;9.07;;
15645;SDS011;7922;43.622;1.476;2022-07-15T10:49:55;10.30;;;9.30;;
15645;SDS011;7922;43.622;1.476;2022-07-15T10:52:25;10.57;;;9.38;;
15645;SDS011;7922;43.622;1.476;2022-07-15T11:03:00;19.65;;;11.38;;
15645;SDS011;7922;43.622;1.476;2022-07-15T11:05:32;11.05;;;10.05;;
15645;SDS011;7922;43.622;1.476;2022-07-15T11:07:58;11.52;;;10.52;;
15645;SDS011;7922;43.622;1.476;2022-07-15T11:10:24;11.95;;;10.85;;
15645;SDS011;7922;43.622;1.476;2022-07-15T11:15:22;8.43;;;7.25;;
15645;SDS011;7922;43.622;1.476;2022-07-15T11:17:51;7.70;;;7.10;;
15645;SDS011;7922;43.622;1.476;2022-07-15T11:20:20;9.27;;;7.60;;
15645;SDS011;7922;43.622;1.476;2022-07-15T11:22:52;8.55;;;7.68;;
15645;SDS011;7922;43.622;1.476;2022-07-15T11:25:38;7.10;;;6.50;;
15645;SDS011;7922;43.622;1.476;2022-07-15T11:28:07;7.25;;;6.32;;
15645;SDS011;7922;43.622;1.476;2022-07-15T11:30:34;7.88;;;6.10;;
15645;SDS011;7922;43.622;1.476;2022-07-15T11:33:06;7.07;;;6.50;;
15645;SDS011;7922;43.622;1.476;2022-07-15T11:35:44;5.57;;;5.07;;
15645;SDS011;7922;43.622;1.476;2022-07-15T11:38:18;7.90;;;7.20;;
15645;SDS011;7922;43.622;1.476;2022-07-15T11:40:49;12.32;;;8.57;;
15645;SDS011;7922;43.622;1.476;2022-07-15T11:43:35;9.65;;;8.02;;
15645;SDS011;7922;43.622;1.476;2022-07-15T11:46:19;8.20;;;7.50;;
15645;SDS011;7922;43.622;1.476;2022-07-15T11:48:48;11.85;;;8.05;;
15645;SDS011;7922;43.622;1.476;2022-07-15T11:51:14;7.88;;;7.18;;
15645;SDS011;7922;43.622;1.476;2022-07-15T11:53:42;7.40;;;6.75;;
15645;SDS011;7922;43.622;1.476;2022-07-15T11:56:13;7.45;;;6.75;;
15645;SDS011;7922;43.622;1.476;2022-07-15T11:58:40;7.00;;;6.50;;
15645;SDS011;7922;43.622;1.476;2022-07-15T12:01:18;7.30;;;6.22;;
15645;SDS011;7922;43.622;1.476;2022-07-15T12:03:53;6.88;;;5.60;;
15645;SDS011;7922;43.622;1.476;2022-07-15T12:06:21;7.53;;;6.50;;
15645;SDS011;7922;43.622;1.476;2022-07-15T12:11:19;5.60;;;5.10;;
15645;SDS011;7922;43.622;1.476;2022-07-15T12:13:48;6.53;;;5.90;;
15645;SDS011;7922;43.622;1.476;2022-07-15T12:16:22;6.18;;;5.47;;
15645;SDS011;7922;43.622;1.476;2022-07-15T12:18:55;8.48;;;6.28;;
15645;SDS011;7922;43.622;1.476;2022-07-15T12:21:23;7.00;;;6.30;;
15645;SDS011;7922;43.622;1.476;2022-07-15T12:26:56;6.97;;;6.45;;
15645;SDS011;7922;43.622;1.476;2022-07-15T12:29:23;6.55;;;6.05;;
15645;SDS011;7922;43.622;1.476;2022-07-15T12:31:52;9.13;;;7.07;;
15645;SDS011;7922;43.622;1.476;2022-07-15T12:37:22;5.70;;;5.25;;
15645;SDS011;7922;43.622;1.476;2022-07-15T12:39:53;6.78;;;6.35;;
15645;SDS011;7922;43.622;1.476;2022-07-15T12:42:20;7.28;;;6.63;;
15645;SDS011;7922;43.622;1.476;2022-07-15T12:44:45;7.88;;;7.18;;
15645;SDS011;7922;43.622;1.476;2022-07-15T12:47:29;8.23;;;7.63;;
15645;SDS011;7922;43.622;1.476;2022-07-15T12:49:55;9.40;;;8.60;;
15645;SDS011;7922;43.622;1.476;2022-07-15T12:52:31;8.43;;;7.45;;
15645;SDS011;7922;43.622;1.476;2022-07-15T12:55:14;11.32;;;10.50;;
15645;SDS011;7922;43.622;1.476;2022-07-15T12:57:45;12.73;;;11.75;;
15645;SDS011;7922;43.622;1.476;2022-07-15T13:05:28;11.65;;;10.65;;
15645;SDS011;7922;43.622;1.476;2022-07-15T13:08:14;12.40;;;11.40;;
15645;SDS011;7922;43.622;1.476;2022-07-15T13:10:42;11.18;;;10.23;;
15645;SDS011;7922;43.622;1.476;2022-07-15T13:13:10;10.57;;;9.57;;
15645;SDS011;7922;43.622;1.476;2022-07-15T13:15:37;13.20;;;12.00;;
15645;SDS011;7922;43.622;1.476;2022-07-15T13:18:03;14.20;;;12.90;;
15645;SDS011;7922;43.622;1.476;2022-07-15T13:20:29;12.10;;;11.00;;
15645;SDS011;7922;43.622;1.476;2022-07-15T13:22:55;38.00;;;16.83;;
15645;SDS011;7922;43.622;1.476;2022-07-15T13:25:22;13.50;;;12.38;;
15645;SDS011;7922;43.622;1.476;2022-07-15T13:27:49;13.70;;;12.52;;
15645;SDS011;7922;43.622;1.476;2022-07-15T13:30:15;13.43;;;12.23;;
15645;SDS011;7922;43.622;1.476;2022-07-15T13:32:41;11.75;;;10.75;;
15645;SDS011;7922;43.622;1.476;2022-07-15T13:35:08;11.93;;;10.98;;
15645;SDS011;7922;43.622;1.476;2022-07-15T13:37:35;13.15;;;12.05;;
15645;SDS011;7922;43.622;1.476;2022-07-15T13:40:01;13.57;;;12.45;;
15645;SDS011;7922;43.622;1.476;2022-07-15T13:42:29;16.13;;;13.85;;
15645;SDS011;7922;43.622;1.476;2022-07-15T13:44:54;14.27;;;13.13;;
15645;SDS011;7922;43.622;1.476;2022-07-15T13:47:21;11.98;;;11.07;;
15645;SDS011;7922;43.622;1.476;2022-07-15T13:49:48;11.18;;;10.32;;
15645;SDS011;7922;43.622;1.476;2022-07-15T13:52:32;10.85;;;9.75;;
15645;SDS011;7922;43.622;1.476;2022-07-15T13:54:57;13.50;;;12.50;;
15645;SDS011;7922;43.622;1.476;2022-07-15T13:57:23;16.33;;;15.07;;
15645;SDS011;7922;43.622;1.476;2022-07-15T13:59:49;13.73;;;12.63;;
15645;SDS011;7922;43.622;1.476;2022-07-15T14:02:15;10.88;;;9.98;;
15645;SDS011;7922;43.622;1.476;2022-07-15T14:04:40;13.40;;;12.13;;
15645;SDS011;7922;43.622;1.476;2022-07-15T14:07:06;14.13;;;13.02;;
15645;SDS011;7922;43.622;1.476;2022-07-15T14:09:33;15.18;;;13.95;;
15645;SDS011;7922;43.622;1.476;2022-07-15T14:11:59;17.65;;;16.08;;
15645;SDS011;7922;43.622;1.476;2022-07-15T14:14:25;17.85;;;16.30;;
15645;SDS011;7922;43.622;1.476;2022-07-15T14:16:51;16.50;;;15.10;;
15645;SDS011;7922;43.622;1.476;2022-07-15T14:19:18;14.60;;;13.27;;
15645;SDS011;7922;43.622;1.476;2022-07-15T14:21:44;28.80;;;15.77;;
15645;SDS011;7922;43.622;1.476;2022-07-15T14:24:10;19.00;;;14.98;;
15645;SDS011;7922;43.622;1.476;2022-07-15T14:26:35;13.23;;;12.10;;
15645;SDS011;7922;43.622;1.476;2022-07-15T14:29:01;86.00;;;18.33;;
15645;SDS011;7922;43.622;1.476;2022-07-15T14:31:28;10.43;;;9.57;;
15645;SDS011;7922;43.622;1.476;2022-07-15T14:33:54;10.85;;;10.05;;
15645;SDS011;7922;43.622;1.476;2022-07-15T14:36:19;10.60;;;9.80;;
15645;SDS011;7922;43.622;1.476;2022-07-15T14:38:45;11.32;;;10.43;;
15645;SDS011;7922;43.622;1.476;2022-07-15T14:41:11;10.88;;;9.98;;
15645;SDS011;7922;43.622;1.476;2022-07-15T14:43:36;12.27;;;11.27;;
15645;SDS011;7922;43.622;1.476;2022-07-15T14:46:02;12.18;;;11.23;;
15645;SDS011;7922;43.622;1.476;2022-07-15T14:48:28;12.80;;;11.60;;
15645;SDS011;7922;43.622;1.476;2022-07-15T14:50:54;13.68;;;12.48;;
15645;SDS011;7922;43.622;1.476;2022-07-15T14:53:20;12.07;;;10.95;;
15645;SDS011;7922;43.622;1.476;2022-07-15T14:55:46;9.93;;;9.13;;
15645;SDS011;7922;43.622;1.476;2022-07-15T14:58:12;10.93;;;9.95;;
15645;SDS011;7922;43.622;1.476;2022-07-15T15:00:41;12.90;;;11.90;;
15645;SDS011;7922;43.622;1.476;2022-07-15T15:03:07;11.20;;;10.30;;
15645;SDS011;7922;43.622;1.476;2022-07-15T15:05:33;11.90;;;11.00;;
15645;SDS011;7922;43.622;1.476;2022-07-15T15:07:59;10.77;;;9.90;;
15645;SDS011;7922;43.622;1.476;2022-07-15T15:10:25;10.05;;;9.15;;
15645;SDS011;7922;43.622;1.476;2022-07-15T15:12:51;10.32;;;9.45;;
15645;SDS011;7922;43.622;1.476;2022-07-15T15:15:17;10.23;;;9.27;;
15645;SDS011;7922;43.622;1.476;2022-07-15T15:17:43;10.48;;;9.63;;
15645;SDS011;7922;43.622;1.476;2022-07-15T15:20:09;11.48;;;9.90;;
15645;SDS011;7922;43.622;1.476;2022-07-15T15:22:36;10.60;;;9.50;;
15645;SDS011;7922;43.622;1.476;2022-07-15T15:25:03;10.70;;;9.70;;
15645;SDS011;7922;43.622;1.476;2022-07-15T15:27:30;8.38;;;7.55;;
15645;SDS011;7922;43.622;1.476;2022-07-15T15:29:56;6.97;;;6.38;;
15645;SDS011;7922;43.622;1.476;2022-07-15T15:32:22;8.18;;;6.93;;
15645;SDS011;7922;43.622;1.476;2022-07-15T15:34:48;7.35;;;6.75;;